Time;durP1;ratioP1;P1;durP2;ratioP2;P2;SDS_P1;SDS_P2;PMS_P1;PMS_P2;Temp;Humidity;BMP_temperature;BMP_pressure;BME280_temperature;BME280_humidity;BME280_pressure;Samples;Min_cycle;Max_cycle;Signal;HPM_P1;HPM_P2
2021/05/06 00:00:05;;;;;;;;;;;;;;;8.65;58.59;99098.34;5115574;28;19931;-72
2021/05/06 00:02:49;;;;;;;;;;;;;;;8.63;58.07;99094.97;5115511;28;20028;-72
2021/05/06 00:08:10;;;;;;;;;;;;;;;8.54;59.43;99120.44;5113974;28;19981;-72
2021/05/06 00:32:03;;;;;;;;;;;;;;;8.18;60.53;99151.78;5115013;28;20106;-73
2021/05/06 00:34:31;;;;;;;;;;;;;;;8.06;62.06;99151.78;5114974;28;19985;-73
2021/05/06 00:36:59;;;;;;;;;;;;;;;7.93;62.87;99153.47;5114800;28;19924;-72
2021/05/06 00:39:30;;;;;;;;;;;;;;;7.91;62.52;99156.84;5096924;28;19956;-73
2021/05/06 00:55:20;;;;;;;;;;;;;;;7.44;65.79;99157.56;5114621;28;19927;-71
2021/05/06 00:58:03;;;;;;;;;;;;;;;7.38;66.30;99169.41;5113420;28;19931;-72
2021/05/06 01:00:51;;;;;;;;;;;;;;;7.34;66.50;99172.78;5114660;28;19963;-72
2021/05/06 01:03:30;;;;;;;;;;;;;;;7.23;66.68;99169.34;5114610;28;20488;-72
2021/05/06 01:06:02;;;;;;;;;;;;;;;7.20;67.40;99182.00;5114613;28;19973;-71
2021/05/06 01:08:33;;;;;;;;;;;;;;;7.25;67.43;99188.81;5113047;28;19931;-71
2021/05/06 01:11:08;;;;;;;;;;;;;;;7.31;67.37;99182.91;5114906;28;19955;-71
2021/05/06 01:13:37;;;;;;;;;;;;;;;7.32;67.05;99185.44;5114470;28;19927;-73
2021/05/06 01:16:05;;;;;;;;;;;;;;;7.33;66.62;99191.38;5113240;28;19928;-72
2021/05/06 01:18:33;;;;;;;;;;;;;;;7.31;66.48;99188.84;5114295;28;20423;-73
2021/05/06 01:21:03;;;;;;;;;;;;;;;7.26;66.01;99199.81;5114379;28;19930;-72
2021/05/06 01:23:32;;;;;;;;;;;;;;;7.22;66.23;99203.19;5114736;28;19923;-72
2021/05/06 01:26:05;;;;;;;;;;;;;;;7.13;66.56;99209.03;5114361;28;20007;-71
2021/05/06 01:28:36;;;;;;;;;;;;;;;7.07;66.63;99211.56;5115167;28;19946;-71
2021/05/06 01:31:10;;;;;;;;;;;;;;;7.00;67.33;99206.44;5118461;28;19928;-71
2021/05/06 01:33:41;;;;;;;;;;;;;;;6.85;68.00;99217.34;5117267;28;19962;-72
2021/05/06 01:36:15;;;;;;;;;;;;;;;6.69;68.39;99229.03;5118384;28;19976;-71
2021/05/06 01:39:06;;;;;;;;;;;;;;;6.57;68.96;99221.38;5117126;28;20395;-71
2021/05/06 01:44:14;;;;;;;;;;;;;;;6.41;69.48;99237.28;5118226;28;19973;-71
2021/05/06 02:00:07;;;;;;;;;;;;;;;6.77;68.06;99249.41;5117865;28;19928;-72
2021/05/06 02:02:44;;;;;;;;;;;;;;;6.84;67.56;99252.84;5117908;28;19923;-72
2021/05/06 02:05:14;;;;;;;;;;;;;;;6.91;68.25;99249.50;5116681;28;20337;-72
2021/05/06 02:07:45;;;;;;;;;;;;;;;6.94;67.43;99257.13;5116263;28;19928;-72
2021/05/06 02:10:16;;;;;;;;;;;;;;;6.97;67.35;99255.47;5116512;28;19963;-72
2021/05/06 02:12:45;;;;;;;;;;;;;;;6.98;66.92;99254.63;5116474;28;19923;-72
2021/05/06 02:15:16;;;;;;;;;;;;;;;7.03;67.02;99257.22;5117572;28;19934;-72
2021/05/06 02:17:45;;;;;;;;;;;;;;;7.05;67.13;99265.66;5117946;27;19927;-71
2021/05/06 02:20:14;;;;;;;;;;;;;;;7.04;66.72;99269.88;5117361;28;19928;-72
2021/05/06 02:22:43;;;;;;;;;;;;;;;7.02;66.95;99265.63;5117483;28;19931;-71
2021/05/06 02:25:11;;;;;;;;;;;;;;;7.02;66.79;99266.50;5117375;28;19923;-71
2021/05/06 02:27:41;;;;;;;;;;;;;;;7.05;66.58;99263.13;5117278;28;20011;-71
2021/05/06 02:30:09;;;;;;;;;;;;;;;7.06;66.39;99263.13;5117143;28;19976;-71
2021/05/06 02:32:37;;;;;;;;;;;;;;;7.07;66.22;99269.91;5117585;28;20300;-71
2021/05/06 02:35:06;;;;;;;;;;;;;;;7.10;66.13;99275.00;5117235;28;20361;-72
2021/05/06 02:37:34;;;;;;;;;;;;;;;7.13;66.20;99269.09;5117176;28;19930;-72
2021/05/06 02:40:03;;;;;;;;;;;;;;;7.12;65.78;99272.47;5115544;28;19924;-72
2021/05/06 02:42:31;;;;;;;;;;;;;;;7.11;66.22;99286.84;5117067;28;20385;-72
2021/05/06 02:44:58;;;;;;;;;;;;;;;7.08;66.54;99286.00;5116994;28;19987;-72
2021/05/06 02:47:28;;;;;;;;;;;;;;;7.04;66.23;99284.25;5116970;28;20289;-72
2021/05/06 02:49:56;;;;;;;;;;;;;;;7.03;66.54;99287.66;5116761;28;19930;-72
2021/05/06 02:52:30;;;;;;;;;;;;;;;7.02;66.58;99283.41;5116843;28;20011;-72
2021/05/06 02:55:04;;;;;;;;;;;;;;;7.01;66.46;99284.22;5116866;28;20299;-72
2021/05/06 02:57:40;;;;;;;;;;;;;;;7.05;66.53;99275.81;5115886;28;19931;-72
2021/05/06 03:02:51;;;;;;;;;;;;;;;7.03;65.96;99282.56;5117085;28;19924;-72
2021/05/06 03:05:21;;;;;;;;;;;;;;;7.00;66.32;99280.00;5116724;28;19931;-72
2021/05/06 03:07:56;;;;;;;;;;;;;;;6.97;66.17;99279.97;5127823;27;19923;-71
2021/05/06 03:10:37;;;;;;;;;;;;;;;6.96;66.55;99275.75;5118777;27;20452;-72
2021/05/06 03:21:27;;;;;;;;;;;;;;;6.77;67.03;99287.44;5136773;27;20400;-72
2021/05/06 03:23:55;;;;;;;;;;;;;;;6.70;67.23;99291.63;5137123;27;19924;-72
2021/05/06 03:26:23;;;;;;;;;;;;;;;6.65;67.15;99289.88;5118675;27;19976;-72
2021/05/06 03:28:55;;;;;;;;;;;;;;;6.62;67.65;99295.75;5136609;27;19923;-71
2021/05/06 03:31:42;;;;;;;;;;;;;;;6.56;67.90;99300.78;5136524;27;20346;-71
2021/05/06 03:42:11;;;;;;;;;;;;;;;6.41;68.54;99310.78;5118171;27;19955;-72
2021/05/06 04:16:51;;;;;;;;;;;;;;;6.39;70.29;99363.16;5135856;27;19927;-71
2021/05/06 04:27:24;;;;;;;;;;;;;;;6.51;70.63;99378.47;5135909;27;20329;-71
2021/05/06 04:30:15;;;;;;;;;;;;;;;6.63;70.72;99381.13;5135804;27;19934;-72
2021/05/06 04:35:38;;;;;;;;;;;;;;;6.82;70.60;99383.84;5135485;27;19930;-72
2021/05/06 04:38:07;;;;;;;;;;;;;;;6.97;70.19;99382.31;5135403;27;19923;-72
2021/05/06 04:40:55;;;;;;;;;;;;;;;7.10;70.78;99388.34;5135290;27;19923;-72
2021/05/06 04:46:22;;;;;;;;;;;;;;;7.17;69.87;99385.03;5135287;27;19931;-73
2021/05/06 04:54:22;;;;;;;;;;;;;;;7.39;70.41;99390.25;5135423;27;20026;-72
2021/05/06 05:04:49;;;;;;;;;;;;;;;7.62;69.49;99403.13;5134987;27;20013;-71
2021/05/06 05:07:20;;;;;;;;;;;;;;;7.67;69.65;99406.53;5134657;27;19938;-72
2021/05/06 05:17:55;;;;;;;;;;;;;;;8.00;67.72;99424.50;5134921;28;19930;-73
2021/05/06 05:20:25;;;;;;;;;;;;;;;8.08;67.54;99424.56;5134933;28;19923;-72
2021/05/06 05:25:40;;;;;;;;;;;;;;;8.20;66.56;99413.59;5127857;28;20012;-71
2021/05/06 05:28:08;;;;;;;;;;;;;;;8.27;66.47;99418.75;5134752;28;19969;-71
2021/05/06 05:30:38;;;;;;;;;;;;;;;8.41;66.91;99423.88;5134759;28;20372;-71
2021/05/06 05:33:10;;;;;;;;;;;;;;;8.56;67.25;99421.38;5134752;28;19969;-73
2021/05/06 05:35:41;;;;;;;;;;;;;;;8.69;66.69;99423.09;5134598;28;19923;-71
2021/05/06 05:38:18;;;;;;;;;;;;;;;8.75;65.97;99430.78;5135285;28;19924;-72
2021/05/06 05:40:51;;;;;;;;;;;;;;;8.82;65.38;99432.47;5134783;28;19924;-73
2021/05/06 05:43:44;;;;;;;;;;;;;;;8.88;65.54;99437.56;5134699;28;19962;-73
2021/05/06 05:56:55;;;;;;;;;;;;;;;9.45;63.24;99427.44;5134364;27;19972;-73
2021/05/06 05:59:22;;;;;;;;;;;;;;;9.56;62.35;99426.56;5134482;28;19927;-73
2021/05/06 06:01:50;;;;;;;;;;;;;;;9.65;61.93;99434.22;5116486;28;19958;-73
2021/05/06 06:04:18;;;;;;;;;;;;;;;9.74;61.14;99434.22;5134431;28;19969;-74
2021/05/06 06:06:46;;;;;;;;;;;;;;;9.80;60.77;99439.28;5115793;28;19923;-74
2021/05/06 06:09:14;;;;;;;;;;;;;;;9.85;60.16;99443.53;5134321;28;19946;-73
2021/05/06 06:11:42;;;;;;;;;;;;;;;9.95;60.99;99444.38;5133959;28;19930;-72
2021/05/06 06:14:10;;;;;;;;;;;;;;;10.01;59.69;99446.91;5134301;27;19930;-72
2021/05/06 06:16:40;;;;;;;;;;;;;;;10.07;59.78;99439.25;5137998;27;19955;-72
2021/05/06 06:19:08;;;;;;;;;;;;;;;10.15;59.16;99441.81;5137986;27;19927;-71
2021/05/06 06:21:41;;;;;;;;;;;;;;;10.17;58.63;99440.09;5137908;27;20300;-71
2021/05/06 06:24:11;;;;;;;;;;;;;;;10.20;58.85;99443.47;5137910;27;19931;-72
2021/05/06 06:26:38;;;;;;;;;;;;;;;10.31;58.78;99433.25;5137833;27;19930;-71
2021/05/06 06:29:08;;;;;;;;;;;;;;;10.48;58.40;99437.44;5137699;27;19962;-72
2021/05/06 06:31:39;;;;;;;;;;;;;;;10.62;57.72;99430.56;5119403;27;19923;-72
2021/05/06 06:34:07;;;;;;;;;;;;;;;10.72;57.82;99431.34;5138100;27;19928;-72
2021/05/06 06:36:35;;;;;;;;;;;;;;;10.88;56.99;99429.56;5137597;27;19927;-72
2021/05/06 06:39:04;;;;;;;;;;;;;;;10.94;57.07;99432.09;5137632;27;20384;-71
2021/05/06 06:41:33;;;;;;;;;;;;;;;10.92;56.46;99426.16;5137556;27;20468;-72
2021/05/06 06:44:02;;;;;;;;;;;;;;;10.86;56.19;99426.16;5137543;27;19924;-71
2021/05/06 06:46:29;;;;;;;;;;;;;;;10.87;55.22;99426.16;5137501;27;19924;-71
2021/05/06 06:48:57;;;;;;;;;;;;;;;10.98;56.21;99418.44;5137169;27;19924;-72
2021/05/06 06:51:25;;;;;;;;;;;;;;;11.14;55.45;99420.00;5137404;27;19927;-71
2021/05/06 06:53:53;;;;;;;;;;;;;;;11.26;55.60;99409.69;5137470;27;19955;-71
2021/05/06 06:56:21;;;;;;;;;;;;;;;11.39;55.20;99417.28;5137186;27;19924;-71
2021/05/06 06:58:51;;;;;;;;;;;;;;;11.38;54.31;99409.59;5137231;27;19966;-72
2021/05/06 07:01:19;;;;;;;;;;;;;;;11.53;55.02;99408.63;5136990;27;19924;-71
2021/05/06 07:03:47;;;;;;;;;;;;;;;11.57;54.48;99406.03;5137070;27;19945;-71
2021/05/06 07:06:15;;;;;;;;;;;;;;;11.63;54.75;99400.88;5136885;27;20030;-71
2021/05/06 07:08:44;;;;;;;;;;;;;;;11.66;54.28;99405.94;5136827;27;19924;-71
2021/05/06 07:11:12;;;;;;;;;;;;;;;11.76;54.23;99402.47;5136961;27;19923;-71
2021/05/06 07:13:39;;;;;;;;;;;;;;;11.87;53.63;99403.22;5136937;27;19923;-71
2021/05/06 07:16:08;;;;;;;;;;;;;;;12.01;53.36;99414.16;5136870;27;19969;-72
2021/05/06 07:18:36;;;;;;;;;;;;;;;12.14;53.37;99414.84;5136747;27;19923;-72
2021/05/06 07:21:05;;;;;;;;;;;;;;;12.31;54.07;99427.47;5136856;27;19984;-73
2021/05/06 07:23:35;;;;;;;;;;;;;;;12.40;53.41;99406.88;5118486;27;19924;-73
2021/05/06 07:26:06;;;;;;;;;;;;;;;12.58;53.69;99411.75;5136853;27;20368;-72
2021/05/06 07:28:37;;;;;;;;;;;;;;;12.52;52.67;99416.97;5136550;27;20013;-73
2021/05/06 07:31:09;;;;;;;;;;;;;;;12.47;52.05;99423.84;5136659;27;19924;-71
2021/05/06 07:33:42;;;;;;;;;;;;;;;12.49;52.29;99422.09;5136743;27;19923;-70
2021/05/06 07:36:15;;;;;;;;;;;;;;;12.45;51.60;99408.47;5136581;27;19923;-72
2021/05/06 07:38:46;;;;;;;;;;;;;;;12.60;51.94;99417.69;5117817;27;19931;-73
2021/05/06 07:41:17;;;;;;;;;;;;;;;12.70;52.09;99409.00;5136434;27;20022;-73
2021/05/06 07:43:48;;;;;;;;;;;;;;;12.77;51.93;99418.31;5136450;27;19956;-74
2021/05/06 07:46:21;;;;;;;;;;;;;;;12.89;52.16;99410.44;5136340;27;19924;-73
2021/05/06 07:48:53;;;;;;;;;;;;;;;13.04;51.88;99412.81;5136330;27;20276;-73
2021/05/06 07:51:25;;;;;;;;;;;;;;;13.11;51.53;99399.06;5136596;27;19950;-72
2021/05/06 07:54:04;;;;;;;;;;;;;;;13.09;50.58;99399.94;5118075;27;19923;-72
2021/05/06 07:56:36;;;;;;;;;;;;;;;13.00;50.95;99393.22;5136160;27;19968;-73
2021/05/06 07:59:05;;;;;;;;;;;;;;;12.91;51.32;99406.16;5135777;27;19928;-73
2021/05/06 08:01:33;;;;;;;;;;;;;;;12.86;51.03;99397.69;5135970;27;19923;-73
2021/05/06 08:04:02;;;;;;;;;;;;;;;12.65;51.41;99398.00;5135938;27;19950;-73
2021/05/06 08:06:30;;;;;;;;;;;;;;;12.59;51.29;99400.66;5135737;27;20010;-73
2021/05/06 08:08:58;;;;;;;;;;;;;;;12.71;51.45;99409.00;5135614;27;19927;-73
2021/05/06 08:11:26;;;;;;;;;;;;;;;12.89;51.38;99407.03;5135958;27;19924;-73
2021/05/06 08:13:53;;;;;;;;;;;;;;;12.99;51.63;99413.72;5135559;27;20005;-73
2021/05/06 08:16:21;;;;;;;;;;;;;;;12.91;51.69;99401.03;5135716;27;19968;-73
2021/05/06 08:18:50;;;;;;;;;;;;;;;12.73;51.39;99402.16;5135487;27;20388;-73
2021/05/06 08:21:17;;;;;;;;;;;;;;;12.71;51.81;99410.72;5135918;27;19946;-73
2021/05/06 08:23:45;;;;;;;;;;;;;;;12.91;52.06;99413.00;5135385;27;20323;-73
2021/05/06 08:26:13;;;;;;;;;;;;;;;13.19;51.24;99404.91;5135392;27;19923;-73
2021/05/06 08:28:50;;;;;;;;;;;;;;;13.56;51.20;99409.41;5135021;27;19930;-73
2021/05/06 08:31:18;;;;;;;;;;;;;;;13.82;50.47;99397.00;5135068;27;19931;-71
2021/05/06 08:33:46;;;;;;;;;;;;;;;14.03;50.11;99394.03;5135498;27;19924;-73
2021/05/06 08:36:15;;;;;;;;;;;;;;;13.97;50.62;99389.84;5135315;27;19927;-74
2021/05/06 08:38:42;;;;;;;;;;;;;;;14.05;50.83;99397.41;5134656;27;20376;-74
2021/05/06 08:41:10;;;;;;;;;;;;;;;14.24;51.15;99398.75;5135073;27;19962;-73
2021/05/06 08:43:40;;;;;;;;;;;;;;;14.36;49.94;99392.53;5135444;27;20422;-74
2021/05/06 08:46:07;;;;;;;;;;;;;;;14.40;49.92;99399.28;5135207;27;19924;-73
2021/05/06 08:48:57;;;;;;;;;;;;;;;14.52;49.84;99394.75;5135031;27;19966;-73
2021/05/06 08:51:28;;;;;;;;;;;;;;;14.68;48.63;99401.25;5135480;27;19967;-75
2021/05/06 08:53:57;;;;;;;;;;;;;;;14.75;48.35;99397.69;5134920;27;20004;-73
2021/05/06 08:56:25;;;;;;;;;;;;;;;14.73;47.20;99389.13;5135046;27;19934;-74
2021/05/06 08:58:53;;;;;;;;;;;;;;;14.56;47.35;99386.13;5134967;27;19924;-73
2021/05/06 09:01:20;;;;;;;;;;;;;;;14.38;48.22;99386.50;5116643;28;20388;-74
2021/05/06 09:03:48;;;;;;;;;;;;;;;14.38;48.76;99386.50;5135238;27;20342;-74
2021/05/06 09:06:17;;;;;;;;;;;;;;;14.47;47.75;99376.03;5134866;27;19966;-74
2021/05/06 09:08:48;;;;;;;;;;;;;;;14.72;48.08;99372.06;5134592;27;19966;-73
2021/05/06 09:11:16;;;;;;;;;;;;;;;14.90;48.16;99387.94;5135181;28;20333;-74
2021/05/06 09:13:44;;;;;;;;;;;;;;;14.82;47.05;99377.81;5134918;28;20380;-74
2021/05/06 09:16:12;;;;;;;;;;;;;;;14.55;47.52;99371.56;5134749;28;19931;-73
2021/05/06 09:18:41;;;;;;;;;;;;;;;14.17;48.24;99366.38;5134873;28;19923;-74
2021/05/06 09:21:10;;;;;;;;;;;;;;;13.94;49.27;99374.50;5134875;28;19969;-73
2021/05/06 09:23:38;;;;;;;;;;;;;;;13.71;50.13;99370.69;5134692;28;19968;-74
2021/05/06 09:26:07;;;;;;;;;;;;;;;13.48;50.82;99377.94;5134731;28;19984;-73
2021/05/06 09:28:35;;;;;;;;;;;;;;;13.26;51.27;99367.22;5134719;28;20346;-74
2021/05/06 09:31:04;;;;;;;;;;;;;;;13.18;51.56;99381.84;5134610;28;19930;-74
2021/05/06 09:33:34;;;;;;;;;;;;;;;13.27;51.91;99374.88;5134714;28;19930;-74
2021/05/06 09:36:10;;;;;;;;;;;;;;;13.73;52.06;99374.91;5134592;28;20300;-73
2021/05/06 09:38:39;;;;;;;;;;;;;;;14.19;51.94;99368.88;5134702;28;19923;-75
2021/05/06 09:41:07;;;;;;;;;;;;;;;14.44;50.07;99357.28;5134464;28;19924;-74
2021/05/06 09:43:39;;;;;;;;;;;;;;;14.67;49.41;99363.59;5134628;28;19943;-74
2021/05/06 09:46:29;;;;;;;;;;;;;;;14.92;49.66;99363.91;5116444;28;20373;-74
2021/05/06 09:48:58;;;;;;;;;;;;;;;15.11;50.20;99365.16;5134407;27;19969;-74
2021/05/06 09:51:30;;;;;;;;;;;;;;;15.17;50.43;99361.56;5138656;27;19931;-74
2021/05/06 09:53:58;;;;;;;;;;;;;;;15.24;49.88;99352.81;5138458;27;19973;-74
2021/05/06 09:56:27;;;;;;;;;;;;;;;15.15;49.09;99345.34;5138343;27;19927;-74
2021/05/06 09:58:55;;;;;;;;;;;;;;;14.83;49.91;99350.41;5138234;27;20056;-74
2021/05/06 10:01:23;;;;;;;;;;;;;;;14.55;50.27;99347.59;5138292;27;19924;-72
2021/05/06 10:03:51;;;;;;;;;;;;;;;14.26;50.61;99353.34;5138673;27;20318;-72
2021/05/06 10:06:21;;;;;;;;;;;;;;;14.07;50.89;99349.47;5138234;27;19929;-72
2021/05/06 10:08:49;;;;;;;;;;;;;;;14.11;50.96;99361.34;5138065;27;19976;-72
2021/05/06 10:11:17;;;;;;;;;;;;;;;14.13;50.63;99359.63;5138082;27;19923;-72
2021/05/06 10:13:47;;;;;;;;;;;;;;;14.02;51.00;99358.97;5138084;27;19927;-71
2021/05/06 10:16:16;;;;;;;;;;;;;;;13.88;51.49;99364.38;5138220;27;19927;-72
2021/05/06 10:18:44;;;;;;;;;;;;;;;13.74;52.96;99375.75;5119696;27;19959;-72
2021/05/06 10:21:17;;;;;;;;;;;;;;;13.54;54.33;99362.44;5138048;27;20381;-72
2021/05/06 10:23:48;;;;;;;;;;;;;;;13.37;55.05;99361.03;5138274;27;19927;-72
2021/05/06 10:26:21;;;;;;;;;;;;;;;13.26;55.46;99362.94;5138196;27;19923;-72
2021/05/06 10:28:53;;;;;;;;;;;;;;;13.13;56.46;99360.59;5138102;27;19972;-72
2021/05/06 10:31:21;;;;;;;;;;;;;;;13.09;56.38;99354.69;5138040;27;19923;-73
2021/05/06 10:33:53;;;;;;;;;;;;;;;13.12;56.58;99352.06;5137853;27;20345;-72
2021/05/06 10:36:23;;;;;;;;;;;;;;;13.28;56.62;99355.22;5120016;27;19924;-72
2021/05/06 10:38:55;;;;;;;;;;;;;;;13.68;56.27;99351.06;5137937;27;19923;-73
2021/05/06 10:41:28;;;;;;;;;;;;;;;14.21;55.03;99342.31;5137820;27;19930;-73
2021/05/06 10:43:57;;;;;;;;;;;;;;;14.57;54.45;99344.13;5137906;27;19927;-73
2021/05/06 10:46:36;;;;;;;;;;;;;;;14.87;55.13;99339.19;5137836;27;19927;-73
2021/05/06 10:49:07;;;;;;;;;;;;;;;14.90;52.72;99333.97;5137561;27;19930;-73
2021/05/06 10:51:40;;;;;;;;;;;;;;;14.65;52.86;99339.69;5137451;27;20269;-73
2021/05/06 10:54:26;;;;;;;;;;;;;;;14.47;52.95;99337.50;5137633;27;20372;-74
2021/05/06 10:56:55;;;;;;;;;;;;;;;14.46;54.51;99338.41;5125349;27;19966;-74
2021/05/06 10:59:28;;;;;;;;;;;;;;;14.59;54.69;99338.94;5137411;27;20019;-73
2021/05/06 11:01:59;;;;;;;;;;;;;;;14.64;53.20;99332.00;5137174;27;20379;-72
2021/05/06 11:04:32;;;;;;;;;;;;;;;14.55;52.16;99332.19;5137120;27;19924;-71
2021/05/06 11:07:10;;;;;;;;;;;;;;;14.53;52.17;99337.38;5136372;27;19924;-72
2021/05/06 11:09:50;;;;;;;;;;;;;;;14.62;54.20;99331.19;5137112;27;19923;-72
2021/05/06 11:12:33;;;;;;;;;;;;;;;14.58;54.03;99333.00;5137365;27;19923;-72
2021/05/06 11:15:36;;;;;;;;;;;;;;;14.43;54.48;99323.06;5137148;27;20368;-72
2021/05/06 11:18:09;;;;;;;;;;;;;;;14.34;54.58;99318.13;5037407;28;19952;-72
2021/05/06 11:20:43;;;;;;;;;;;;;;;14.35;54.23;99314.66;5053660;28;19925;-70
2021/05/06 11:23:32;;;;;;;;;;;;;;;14.43;53.03;99317.91;5053834;28;20410;-71
2021/05/06 11:26:21;;;;;;;;;;;;;;;14.80;52.20;99320.50;5049592;28;20429;-72
2021/05/06 11:28:52;;;;;;;;;;;;;;;14.93;51.09;99310.75;5130120;27;20380;-72
2021/05/06 11:31:32;;;;;;;;;;;;;;;14.60;51.20;99305.53;5136605;27;19924;-71
2021/05/06 11:34:14;;;;;;;;;;;;;;;14.37;52.71;99301.81;5136801;27;19949;-71
2021/05/06 11:36:46;;;;;;;;;;;;;;;14.33;53.26;99306.16;5136756;27;19923;-70
2021/05/06 11:39:19;;;;;;;;;;;;;;;14.36;53.84;99303.53;5136788;27;19935;-72
2021/05/06 11:41:50;;;;;;;;;;;;;;;14.36;53.54;99285.56;5136689;27;19962;-71
2021/05/06 11:44:18;;;;;;;;;;;;;;;14.54;53.06;99295.41;5136669;27;19977;-75
2021/05/06 11:46:51;;;;;;;;;;;;;;;14.74;51.69;99289.78;5136584;27;19923;-71
2021/05/06 11:49:27;;;;;;;;;;;;;;;15.00;51.53;99294.28;5136408;27;19973;-72
2021/05/06 11:52:04;;;;;;;;;;;;;;;15.12;50.96;99288.84;5118286;27;19923;-76
2021/05/06 11:54:35;;;;;;;;;;;;;;;15.26;50.51;99289.38;5136612;27;19924;-71
2021/05/06 11:57:03;;;;;;;;;;;;;;;15.47;51.11;99286.25;5136609;27;19924;-70
2021/05/06 11:59:32;;;;;;;;;;;;;;;15.60;50.45;99274.75;5136328;27;19951;-70
2021/05/06 12:02:05;;;;;;;;;;;;;;;15.63;51.16;99276.38;5136000;27;19923;-72
2021/05/06 12:04:37;;;;;;;;;;;;;;;15.73;52.17;99270.94;5136312;27;19972;-71
2021/05/06 12:07:15;;;;;;;;;;;;;;;15.80;52.05;99280.19;5135273;27;20291;-72
2021/05/06 12:09:43;;;;;;;;;;;;;;;15.78;52.21;99287.09;5135987;27;19976;-70
2021/05/06 12:12:11;;;;;;;;;;;;;;;15.58;52.74;99283.38;5135092;27;20010;-72
2021/05/06 12:14:40;;;;;;;;;;;;;;;15.63;52.38;99282.38;5135776;27;19923;-72
2021/05/06 12:17:08;;;;;;;;;;;;;;;15.53;52.01;99275.78;5135365;27;19930;-70
2021/05/06 12:19:41;;;;;;;;;;;;;;;15.36;52.56;99280.50;5135940;27;19977;-71
2021/05/06 12:22:09;;;;;;;;;;;;;;;15.30;52.68;99290.97;5135700;27;19923;-72
2021/05/06 12:24:38;;;;;;;;;;;;;;;15.49;52.84;99289.63;5135510;27;19923;-72
2021/05/06 12:27:15;;;;;;;;;;;;;;;15.68;51.86;99288.25;5134365;27;19933;-72
2021/05/06 12:29:43;;;;;;;;;;;;;;;15.76;52.30;99288.88;5135359;27;19923;-70
2021/05/06 12:32:16;;;;;;;;;;;;;;;15.56;52.56;99285.16;5135249;27;19923;-73
2021/05/06 12:34:45;;;;;;;;;;;;;;;15.26;52.56;99276.50;5135493;27;19927;-72
2021/05/06 12:37:13;;;;;;;;;;;;;;;15.04;52.21;99270.22;5135415;27;20365;-69
2021/05/06 12:39:42;;;;;;;;;;;;;;;15.14;53.22;99276.81;5135210;27;19924;-71
2021/05/06 12:42:15;;;;;;;;;;;;;;;15.33;52.01;99275.47;5135335;27;20018;-71
2021/05/06 12:44:48;;;;;;;;;;;;;;;15.43;52.02;99264.03;5135511;27;20369;-71
2021/05/06 12:47:21;;;;;;;;;;;;;;;15.56;52.18;99269.72;5135912;27;19969;-72
2021/05/06 12:50:06;;;;;;;;;;;;;;;15.68;51.14;99270.22;5135341;27;19930;-71
2021/05/06 12:52:36;;;;;;;;;;;;;;;15.74;50.86;99270.03;5135447;27;19923;-72
2021/05/06 12:55:18;;;;;;;;;;;;;;;15.72;52.17;99266.69;5135379;27;19974;-71
2021/05/06 12:58:00;;;;;;;;;;;;;;;15.45;51.72;99267.47;5135366;27;19930;-73
2021/05/06 13:00:38;;;;;;;;;;;;;;;15.28;52.46;99264.47;5135085;27;19954;-73
2021/05/06 13:03:07;;;;;;;;;;;;;;;15.34;52.98;99254.84;5135255;27;19996;-71
2021/05/06 13:05:38;;;;;;;;;;;;;;;15.25;53.15;99264.53;5135208;27;19954;-72
2021/05/06 13:08:07;;;;;;;;;;;;;;;14.76;53.30;99270.91;5134862;27;19924;-72
2021/05/06 13:10:39;;;;;;;;;;;;;;;14.61;53.61;99266.13;5135012;27;19928;-71
2021/05/06 13:13:08;;;;;;;;;;;;;;;14.61;53.27;99266.13;5135212;28;19930;-71
2021/05/06 13:15:47;;;;;;;;;;;;;;;14.48;54.19;99259.59;5135109;28;19962;-71
2021/05/06 13:18:15;;;;;;;;;;;;;;;14.27;54.23;99265.19;5135012;28;19923;-71
2021/05/06 13:20:47;;;;;;;;;;;;;;;14.03;54.90;99266.56;5135102;28;19931;-72
2021/05/06 13:23:15;;;;;;;;;;;;;;;13.86;55.52;99257.53;5135291;27;19931;-72
2021/05/06 13:25:47;;;;;;;;;;;;;;;13.87;55.73;99260.06;5139377;27;20019;-71
2021/05/06 13:28:19;;;;;;;;;;;;;;;13.91;55.19;99255.72;5139335;27;19923;-72
2021/05/06 13:30:48;;;;;;;;;;;;;;;14.03;55.27;99247.75;5138816;27;19923;-72
2021/05/06 13:33:18;;;;;;;;;;;;;;;14.07;54.70;99242.53;5139144;27;20380;-72
2021/05/06 13:36:05;;;;;;;;;;;;;;;14.13;54.93;99236.44;5139063;27;20015;-71
2021/05/06 13:38:44;;;;;;;;;;;;;;;14.11;54.53;99222.75;5139326;27;20387;-73
2021/05/06 13:41:16;;;;;;;;;;;;;;;14.01;54.50;99232.38;5138972;27;19927;-69
2021/05/06 13:43:44;;;;;;;;;;;;;;;13.97;54.86;99235.06;5138976;27;20338;-71
2021/05/06 13:46:13;;;;;;;;;;;;;;;14.00;55.59;99240.13;5138771;27;19924;-71
2021/05/06 13:48:41;;;;;;;;;;;;;;;14.04;55.03;99226.34;5138296;27;19968;-71
2021/05/06 13:51:13;;;;;;;;;;;;;;;14.05;54.86;99228.88;5138563;27;20429;-72
2021/05/06 13:53:44;;;;;;;;;;;;;;;13.89;54.94;99229.25;5138830;27;20399;-71
2021/05/06 13:56:15;;;;;;;;;;;;;;;13.81;55.13;99229.41;5138904;27;19927;-72
2021/05/06 13:58:47;;;;;;;;;;;;;;;13.77;55.96;99216.69;5138655;27;20315;-72
2021/05/06 14:01:19;;;;;;;;;;;;;;;13.78;56.18;99213.22;5138765;27;19924;-73
2021/05/06 14:03:50;;;;;;;;;;;;;;;13.76;55.99;99220.13;5138375;27;19927;-72
2021/05/06 14:06:18;;;;;;;;;;;;;;;13.68;55.53;99219.41;5138573;27;19923;-73
2021/05/06 14:08:46;;;;;;;;;;;;;;;13.60;55.56;99208.50;5137963;27;20296;-72
2021/05/06 14:11:17;;;;;;;;;;;;;;;13.64;56.20;99213.53;5138125;27;19923;-72
2021/05/06 14:14:05;;;;;;;;;;;;;;;13.76;56.20;99199.59;5138476;27;19972;-72
2021/05/06 14:16:34;;;;;;;;;;;;;;;14.03;55.55;99193.88;5138455;27;19924;-73
2021/05/06 14:19:02;;;;;;;;;;;;;;;14.32;56.14;99200.94;5138333;27;19923;-70
2021/05/06 14:21:31;;;;;;;;;;;;;;;14.54;56.41;99191.84;5137971;27;19946;-71
2021/05/06 14:24:02;;;;;;;;;;;;;;;14.75;56.44;99187.03;5138186;27;19948;-72
2021/05/06 14:26:30;;;;;;;;;;;;;;;14.87;53.87;99192.72;5138291;27;20014;-71
2021/05/06 14:29:01;;;;;;;;;;;;;;;14.93;54.01;99195.97;5138126;27;19988;-72
2021/05/06 14:31:29;;;;;;;;;;;;;;;14.96;53.21;99184.75;5138108;27;20380;-72
2021/05/06 14:33:58;;;;;;;;;;;;;;;15.07;53.23;99182.75;5137745;27;19959;-70
2021/05/06 14:36:26;;;;;;;;;;;;;;;15.16;53.01;99180.78;5137232;27;20013;-70
2021/05/06 14:38:57;;;;;;;;;;;;;;;15.17;53.64;99184.19;5137674;27;20018;-72
2021/05/06 14:41:25;;;;;;;;;;;;;;;15.25;53.88;99187.41;5137809;27;20384;-73
2021/05/06 14:43:57;;;;;;;;;;;;;;;15.40;53.82;99174.94;5137632;27;20014;-71
2021/05/06 14:46:25;;;;;;;;;;;;;;;15.36;54.19;99180.22;5138109;27;20018;-70
2021/05/06 14:48:53;;;;;;;;;;;;;;;15.18;54.47;99178.16;5137692;27;20377;-70
2021/05/06 14:51:25;;;;;;;;;;;;;;;14.99;54.64;99169.28;5137432;27;19923;-72
2021/05/06 14:53:56;;;;;;;;;;;;;;;14.98;54.97;99170.13;5137762;27;19984;-72
2021/05/06 14:56:24;;;;;;;;;;;;;;;15.00;54.72;99158.09;5137775;27;20380;-72
2021/05/06 14:58:55;;;;;;;;;;;;;;;15.03;54.83;99168.28;5119295;27;19923;-71
2021/05/06 15:01:27;;;;;;;;;;;;;;;14.99;54.95;99169.28;5137558;27;19929;-72
2021/05/06 15:03:58;;;;;;;;;;;;;;;15.06;54.60;99165.66;5137325;27;19946;-72
2021/05/06 15:06:27;;;;;;;;;;;;;;;15.05;53.19;99163.94;5137625;27;19928;-72
2021/05/06 15:09:00;;;;;;;;;;;;;;;14.94;53.19;99150.56;5136324;27;19927;-72
2021/05/06 15:11:28;;;;;;;;;;;;;;;14.88;53.45;99146.41;5137071;27;19945;-70
2021/05/06 15:14:00;;;;;;;;;;;;;;;14.95;53.70;99145.38;5137189;27;19927;-71
2021/05/06 15:16:28;;;;;;;;;;;;;;;15.00;54.59;99140.09;5137253;27;19976;-72
2021/05/06 15:18:56;;;;;;;;;;;;;;;14.98;54.49;99132.44;5137103;27;19934;-71
2021/05/06 15:21:28;;;;;;;;;;;;;;;15.00;53.67;99150.38;5136957;27;19923;-70
2021/05/06 15:23:59;;;;;;;;;;;;;;;14.95;53.80;99135.09;5137047;27;19934;-72
2021/05/06 15:26:28;;;;;;;;;;;;;;;14.92;53.15;99126.63;5137102;27;19923;-72
2021/05/06 15:28:58;;;;;;;;;;;;;;;14.86;53.07;99129.34;5137313;27;19924;-71
2021/05/06 15:31:27;;;;;;;;;;;;;;;14.75;53.38;99125.38;5136678;27;20036;-70
2021/05/06 15:33:58;;;;;;;;;;;;;;;14.72;53.78;99115.16;5137224;27;19973;-72
2021/05/06 15:36:30;;;;;;;;;;;;;;;14.72;53.71;99120.31;5136912;27;19923;-71
2021/05/06 15:39:04;;;;;;;;;;;;;;;14.72;54.61;99107.47;5136842;27;19924;-72
2021/05/06 15:41:32;;;;;;;;;;;;;;;14.67;54.89;99105.88;5136737;27;19923;-73
2021/05/06 15:44:03;;;;;;;;;;;;;;;14.52;54.94;99106.28;5136711;27;19985;-71